sensor_id;sensor_type;location;lat;lon;timestamp;P1;P2;P0
55591;PMS5003;41454;53.396;-1.510;2023-11-19T00:00:09;2;2;
55591;PMS5003;41454;53.396;-1.510;2023-11-19T00:02:37;4;3;
55591;PMS5003;41454;53.396;-1.510;2023-11-19T00:05:04;7;6;
55591;PMS5003;41454;53.396;-1.510;2023-11-19T00:07:32;4;3;
55591;PMS5003;41454;53.396;-1.510;2023-11-19T00:10:00;7;3;
55591;PMS5003;41454;53.396;-1.510;2023-11-19T00:12:27;4;4;
55591;PMS5003;41454;53.396;-1.510;2023-11-19T00:14:54;5;5;
55591;PMS5003;41454;53.396;-1.510;2023-11-19T00:17:20;5;5;
55591;PMS5003;41454;53.396;-1.510;2023-11-19T00:19:48;7;6;
55591;PMS5003;41454;53.396;-1.510;2023-11-19T00:22:15;4;4;
55591;PMS5003;41454;53.396;-1.510;2023-11-19T00:24:42;6;6;
55591;PMS5003;41454;53.396;-1.510;2023-11-19T00:27:09;8;5;
55591;PMS5003;41454;53.396;-1.510;2023-11-19T00:29:36;4;4;
55591;PMS5003;41454;53.396;-1.510;2023-11-19T00:32:03;8;8;
55591;PMS5003;41454;53.396;-1.510;2023-11-19T00:34:31;2;2;
55591;PMS5003;41454;53.396;-1.510;2023-11-19T00:36:58;3;2;
55591;PMS5003;41454;53.396;-1.510;2023-11-19T00:39:26;1;1;
55591;PMS5003;41454;53.396;-1.510;2023-11-19T00:41:53;5;5;
55591;PMS5003;41454;53.396;-1.510;2023-11-19T00:44:21;5;4;
55591;PMS5003;41454;53.396;-1.510;2023-11-19T00:46:48;6;6;
55591;PMS5003;41454;53.396;-1.510;2023-11-19T00:49:16;5;5;
55591;PMS5003;41454;53.396;-1.510;2023-11-19T00:51:43;6;4;
55591;PMS5003;41454;53.396;-1.510;2023-11-19T00:54:10;5;5;
55591;PMS5003;41454;53.396;-1.510;2023-11-19T00:56:38;6;5;
55591;PMS5003;41454;53.396;-1.510;2023-11-19T00:59:05;5;3;
55591;PMS5003;41454;53.396;-1.510;2023-11-19T01:01:32;4;4;
55591;PMS5003;41454;53.396;-1.510;2023-11-19T01:03:59;8;7;
55591;PMS5003;41454;53.396;-1.510;2023-11-19T01:06:26;4;3;
55591;PMS5003;41454;53.396;-1.510;2023-11-19T01:08:54;8;6;
55591;PMS5003;41454;53.396;-1.510;2023-11-19T01:11:21;2;2;
55591;PMS5003;41454;53.396;-1.510;2023-11-19T01:13:49;4;3;
55591;PMS5003;41454;53.396;-1.510;2023-11-19T01:16:18;4;4;
55591;PMS5003;41454;53.396;-1.510;2023-11-19T01:18:46;6;5;
55591;PMS5003;41454;53.396;-1.510;2023-11-19T01:21:15;4;3;
55591;PMS5003;41454;53.396;-1.510;2023-11-19T01:23:42;7;5;
55591;PMS5003;41454;53.396;-1.510;2023-11-19T01:26:09;5;5;
55591;PMS5003;41454;53.396;-1.510;2023-11-19T01:28:36;8;5;
55591;PMS5003;41454;53.396;-1.510;2023-11-19T01:31:03;3;3;
55591;PMS5003;41454;53.396;-1.510;2023-11-19T01:33:32;4;3;
55591;PMS5003;41454;53.396;-1.510;2023-11-19T01:36:00;5;2;
55591;PMS5003;41454;53.396;-1.510;2023-11-19T01:38:27;4;4;
55591;PMS5003;41454;53.396;-1.510;2023-11-19T01:40:55;2;2;
55591;PMS5003;41454;53.396;-1.510;2023-11-19T01:43:39;5;4;
55591;PMS5003;41454;53.396;-1.510;2023-11-19T01:46:07;10;8;
55591;PMS5003;41454;53.396;-1.510;2023-11-19T01:48:34;4;3;
55591;PMS5003;41454;53.396;-1.510;2023-11-19T01:51:03;5;5;
55591;PMS5003;41454;53.396;-1.510;2023-11-19T01:53:32;5;5;
55591;PMS5003;41454;53.396;-1.510;2023-11-19T01:56:01;3;3;
55591;PMS5003;41454;53.396;-1.510;2023-11-19T01:58:29;5;4;
55591;PMS5003;41454;53.396;-1.510;2023-11-19T02:00:57;5;5;
55591;PMS5003;41454;53.396;-1.510;2023-11-19T02:03:25;2;2;
55591;PMS5003;41454;53.396;-1.510;2023-11-19T02:05:52;4;2;
55591;PMS5003;41454;53.396;-1.510;2023-11-19T02:08:19;9;6;
55591;PMS5003;41454;53.396;-1.510;2023-11-19T02:10:45;7;5;
55591;PMS5003;41454;53.396;-1.510;2023-11-19T02:13:13;4;3;
55591;PMS5003;41454;53.396;-1.510;2023-11-19T02:15:40;3;3;
55591;PMS5003;41454;53.396;-1.510;2023-11-19T02:18:24;2;2;
55591;PMS5003;41454;53.396;-1.510;2023-11-19T02:20:52;4;2;
55591;PMS5003;41454;53.396;-1.510;2023-11-19T02:23:20;3;3;
55591;PMS5003;41454;53.396;-1.510;2023-11-19T02:25:51;4;4;
55591;PMS5003;41454;53.396;-1.510;2023-11-19T02:28:27;8;5;
55591;PMS5003;41454;53.396;-1.510;2023-11-19T02:30:55;3;2;
55591;PMS5003;41454;53.396;-1.510;2023-11-19T02:33:21;4;4;
55591;PMS5003;41454;53.396;-1.510;2023-11-19T02:35:49;5;5;
55591;PMS5003;41454;53.396;-1.510;2023-11-19T02:38:16;5;4;
55591;PMS5003;41454;53.396;-1.510;2023-11-19T02:40:44;6;5;
55591;PMS5003;41454;53.396;-1.510;2023-11-19T02:43:11;4;2;
55591;PMS5003;41454;53.396;-1.510;2023-11-19T02:45:39;7;5;
55591;PMS5003;41454;53.396;-1.510;2023-11-19T02:48:06;6;4;
55591;PMS5003;41454;53.396;-1.510;2023-11-19T02:50:33;3;3;
55591;PMS5003;41454;53.396;-1.510;2023-11-19T02:53:00;7;3;
55591;PMS5003;41454;53.396;-1.510;2023-11-19T02:55:28;3;2;
55591;PMS5003;41454;53.396;-1.510;2023-11-19T02:57:55;4;3;
55591;PMS5003;41454;53.396;-1.510;2023-11-19T03:00:22;5;5;
55591;PMS5003;41454;53.396;-1.510;2023-11-19T03:02:49;3;3;
55591;PMS5003;41454;53.396;-1.510;2023-11-19T03:05:17;4;3;
55591;PMS5003;41454;53.396;-1.510;2023-11-19T03:07:45;2;2;
55591;PMS5003;41454;53.396;-1.510;2023-11-19T03:10:12;5;4;
55591;PMS5003;41454;53.396;-1.510;2023-11-19T03:12:40;2;2;
55591;PMS5003;41454;53.396;-1.510;2023-11-19T03:15:08;4;4;
55591;PMS5003;41454;53.396;-1.510;2023-11-19T03:17:36;1;0;
55591;PMS5003;41454;53.396;-1.510;2023-11-19T03:20:05;4;2;
55591;PMS5003;41454;53.396;-1.510;2023-11-19T03:22:33;4;3;
55591;PMS5003;41454;53.396;-1.510;2023-11-19T03:25:00;2;2;
55591;PMS5003;41454;53.396;-1.510;2023-11-19T03:27:27;5;4;
55591;PMS5003;41454;53.396;-1.510;2023-11-19T03:29:54;4;3;
55591;PMS5003;41454;53.396;-1.510;2023-11-19T03:32:21;5;3;
55591;PMS5003;41454;53.396;-1.510;2023-11-19T03:34:48;4;4;
55591;PMS5003;41454;53.396;-1.510;2023-11-19T03:37:15;5;5;
55591;PMS5003;41454;53.396;-1.510;2023-11-19T03:39:42;3;2;
55591;PMS5003;41454;53.396;-1.510;2023-11-19T03:42:09;4;3;
55591;PMS5003;41454;53.396;-1.510;2023-11-19T03:44:36;5;4;
55591;PMS5003;41454;53.396;-1.510;2023-11-19T03:47:04;5;5;
55591;PMS5003;41454;53.396;-1.510;2023-11-19T03:49:31;7;7;
55591;PMS5003;41454;53.396;-1.510;2023-11-19T03:51:59;2;2;
55591;PMS5003;41454;53.396;-1.510;2023-11-19T03:54:26;3;3;
55591;PMS5003;41454;53.396;-1.510;2023-11-19T03:56:53;4;4;
55591;PMS5003;41454;53.396;-1.510;2023-11-19T03:59:20;5;3;
55591;PMS5003;41454;53.396;-1.510;2023-11-19T04:01:47;4;3;
55591;PMS5003;41454;53.396;-1.510;2023-11-19T04:04:15;7;6;
55591;PMS5003;41454;53.396;-1.510;2023-11-19T04:06:42;2;2;
55591;PMS5003;41454;53.396;-1.510;2023-11-19T04:09:08;4;3;
55591;PMS5003;41454;53.396;-1.510;2023-11-19T04:11:36;5;3;
55591;PMS5003;41454;53.396;-1.510;2023-11-19T04:14:03;4;4;
55591;PMS5003;41454;53.396;-1.510;2023-11-19T04:16:31;3;3;
55591;PMS5003;41454;53.396;-1.510;2023-11-19T04:18:58;5;4;
55591;PMS5003;41454;53.396;-1.510;2023-11-19T04:21:26;1;1;
55591;PMS5003;41454;53.396;-1.510;2023-11-19T04:23:53;4;4;
55591;PMS5003;41454;53.396;-1.510;2023-11-19T04:26:20;3;2;
55591;PMS5003;41454;53.396;-1.510;2023-11-19T04:28:46;4;4;
55591;PMS5003;41454;53.396;-1.510;2023-11-19T04:31:14;4;4;
55591;PMS5003;41454;53.396;-1.510;2023-11-19T04:33:41;10;6;
55591;PMS5003;41454;53.396;-1.510;2023-11-19T04:36:09;3;3;
55591;PMS5003;41454;53.396;-1.510;2023-11-19T04:38:36;8;6;
55591;PMS5003;41454;53.396;-1.510;2023-11-19T04:41:04;3;3;
55591;PMS5003;41454;53.396;-1.510;2023-11-19T04:43:32;2;2;
55591;PMS5003;41454;53.396;-1.510;2023-11-19T04:45:59;2;2;
55591;PMS5003;41454;53.396;-1.510;2023-11-19T04:48:25;3;2;
55591;PMS5003;41454;53.396;-1.510;2023-11-19T04:50:52;4;2;
55591;PMS5003;41454;53.396;-1.510;2023-11-19T04:53:20;3;3;
55591;PMS5003;41454;53.396;-1.510;2023-11-19T04:55:46;3;3;
55591;PMS5003;41454;53.396;-1.510;2023-11-19T04:58:13;2;2;
55591;PMS5003;41454;53.396;-1.510;2023-11-19T05:00:40;4;2;
55591;PMS5003;41454;53.396;-1.510;2023-11-19T05:03:08;4;4;
55591;PMS5003;41454;53.396;-1.510;2023-11-19T05:05:34;5;4;
55591;PMS5003;41454;53.396;-1.510;2023-11-19T05:08:01;3;3;
55591;PMS5003;41454;53.396;-1.510;2023-11-19T05:10:28;3;3;
55591;PMS5003;41454;53.396;-1.510;2023-11-19T05:12:54;6;6;
55591;PMS5003;41454;53.396;-1.510;2023-11-19T05:15:21;3;2;
55591;PMS5003;41454;53.396;-1.510;2023-11-19T05:17:48;1;1;
55591;PMS5003;41454;53.396;-1.510;2023-11-19T05:20:15;3;2;
55591;PMS5003;41454;53.396;-1.510;2023-11-19T05:22:43;1;1;
55591;PMS5003;41454;53.396;-1.510;2023-11-19T05:25:11;0;0;
55591;PMS5003;41454;53.396;-1.510;2023-11-19T05:27:38;1;1;
55591;PMS5003;41454;53.396;-1.510;2023-11-19T05:30:06;1;1;
55591;PMS5003;41454;53.396;-1.510;2023-11-19T05:32:33;0;0;
55591;PMS5003;41454;53.396;-1.510;2023-11-19T05:35:00;1;1;
55591;PMS5003;41454;53.396;-1.510;2023-11-19T05:37:27;2;2;
55591;PMS5003;41454;53.396;-1.510;2023-11-19T05:39:54;2;2;
55591;PMS5003;41454;53.396;-1.510;2023-11-19T05:42:21;1;1;
55591;PMS5003;41454;53.396;-1.510;2023-11-19T05:44:48;2;2;
55591;PMS5003;41454;53.396;-1.510;2023-11-19T05:47:16;1;0;
55591;PMS5003;41454;53.396;-1.510;2023-11-19T05:49:42;4;4;
55591;PMS5003;41454;53.396;-1.510;2023-11-19T05:52:10;2;2;
55591;PMS5003;41454;53.396;-1.510;2023-11-19T05:54:37;1;1;
55591;PMS5003;41454;53.396;-1.510;2023-11-19T05:57:05;3;2;
55591;PMS5003;41454;53.396;-1.510;2023-11-19T05:59:32;5;5;
55591;PMS5003;41454;53.396;-1.510;2023-11-19T06:02:00;3;2;
55591;PMS5003;41454;53.396;-1.510;2023-11-19T06:04:26;3;3;
55591;PMS5003;41454;53.396;-1.510;2023-11-19T06:06:53;4;4;
55591;PMS5003;41454;53.396;-1.510;2023-11-19T06:09:21;4;4;
55591;PMS5003;41454;53.396;-1.510;2023-11-19T06:11:48;3;3;
55591;PMS5003;41454;53.396;-1.510;2023-11-19T06:14:15;3;3;
55591;PMS5003;41454;53.396;-1.510;2023-11-19T06:16:43;1;1;
55591;PMS5003;41454;53.396;-1.510;2023-11-19T06:19:11;5;4;
55591;PMS5003;41454;53.396;-1.510;2023-11-19T06:21:38;4;3;
55591;PMS5003;41454;53.396;-1.510;2023-11-19T06:24:06;4;4;
55591;PMS5003;41454;53.396;-1.510;2023-11-19T06:26:34;2;2;
55591;PMS5003;41454;53.396;-1.510;2023-11-19T06:29:01;3;3;
55591;PMS5003;41454;53.396;-1.510;2023-11-19T06:31:28;2;2;
55591;PMS5003;41454;53.396;-1.510;2023-11-19T06:33:55;7;5;
55591;PMS5003;41454;53.396;-1.510;2023-11-19T06:36:22;4;2;
55591;PMS5003;41454;53.396;-1.510;2023-11-19T06:38:49;5;4;
55591;PMS5003;41454;53.396;-1.510;2023-11-19T06:41:16;5;4;
55591;PMS5003;41454;53.396;-1.510;2023-11-19T06:43:44;1;1;
55591;PMS5003;41454;53.396;-1.510;2023-11-19T06:46:14;1;1;
55591;PMS5003;41454;53.396;-1.510;2023-11-19T06:48:42;4;4;
55591;PMS5003;41454;53.396;-1.510;2023-11-19T06:51:09;3;2;
55591;PMS5003;41454;53.396;-1.510;2023-11-19T06:53:37;6;5;
55591;PMS5003;41454;53.396;-1.510;2023-11-19T06:56:05;3;3;
55591;PMS5003;41454;53.396;-1.510;2023-11-19T06:58:43;4;2;
55591;PMS5003;41454;53.396;-1.510;2023-11-19T07:01:10;2;2;
55591;PMS5003;41454;53.396;-1.510;2023-11-19T07:03:38;2;2;
55591;PMS5003;41454;53.396;-1.510;2023-11-19T07:06:05;4;2;
55591;PMS5003;41454;53.396;-1.510;2023-11-19T07:08:32;2;2;
55591;PMS5003;41454;53.396;-1.510;2023-11-19T07:10:59;4;3;
55591;PMS5003;41454;53.396;-1.510;2023-11-19T07:13:26;3;1;
55591;PMS5003;41454;53.396;-1.510;2023-11-19T07:15:53;2;2;
55591;PMS5003;41454;53.396;-1.510;2023-11-19T07:18:21;5;3;
55591;PMS5003;41454;53.396;-1.510;2023-11-19T07:20:48;3;3;
55591;PMS5003;41454;53.396;-1.510;2023-11-19T07:23:16;7;3;
55591;PMS5003;41454;53.396;-1.510;2023-11-19T07:25:43;3;3;
55591;PMS5003;41454;53.396;-1.510;2023-11-19T07:28:10;4;3;
55591;PMS5003;41454;53.396;-1.510;2023-11-19T07:30:37;1;1;
55591;PMS5003;41454;53.396;-1.510;2023-11-19T07:33:05;4;4;
55591;PMS5003;41454;53.396;-1.510;2023-11-19T07:35:33;3;2;
55591;PMS5003;41454;53.396;-1.510;2023-11-19T07:37:59;7;3;
55591;PMS5003;41454;53.396;-1.510;2023-11-19T07:40:26;6;4;
55591;PMS5003;41454;53.396;-1.510;2023-11-19T07:42:53;2;1;
55591;PMS5003;41454;53.396;-1.510;2023-11-19T07:45:20;3;3;
55591;PMS5003;41454;53.396;-1.510;2023-11-19T07:47:48;2;1;
55591;PMS5003;41454;53.396;-1.510;2023-11-19T07:50:15;3;2;
55591;PMS5003;41454;53.396;-1.510;2023-11-19T07:52:43;3;3;
55591;PMS5003;41454;53.396;-1.510;2023-11-19T07:55:09;2;2;
55591;PMS5003;41454;53.396;-1.510;2023-11-19T07:57:37;5;4;
55591;PMS5003;41454;53.396;-1.510;2023-11-19T08:00:05;5;5;
55591;PMS5003;41454;53.396;-1.510;2023-11-19T08:02:33;2;1;
55591;PMS5003;41454;53.396;-1.510;2023-11-19T08:04:59;3;1;
55591;PMS5003;41454;53.396;-1.510;2023-11-19T08:07:26;2;2;
55591;PMS5003;41454;53.396;-1.510;2023-11-19T08:09:53;2;1;
55591;PMS5003;41454;53.396;-1.510;2023-11-19T08:12:19;0;0;
55591;PMS5003;41454;53.396;-1.510;2023-11-19T08:14:46;1;1;
55591;PMS5003;41454;53.396;-1.510;2023-11-19T08:17:14;2;2;
55591;PMS5003;41454;53.396;-1.510;2023-11-19T08:19:41;5;2;
55591;PMS5003;41454;53.396;-1.510;2023-11-19T08:22:09;1;1;
55591;PMS5003;41454;53.396;-1.510;2023-11-19T08:24:36;3;3;
55591;PMS5003;41454;53.396;-1.510;2023-11-19T08:27:03;2;2;
55591;PMS5003;41454;53.396;-1.510;2023-11-19T08:29:31;3;2;
55591;PMS5003;41454;53.396;-1.510;2023-11-19T08:31:59;6;3;
55591;PMS5003;41454;53.396;-1.510;2023-11-19T08:34:26;2;2;
55591;PMS5003;41454;53.396;-1.510;2023-11-19T08:36:54;3;2;
55591;PMS5003;41454;53.396;-1.510;2023-11-19T08:39:21;3;1;
55591;PMS5003;41454;53.396;-1.510;2023-11-19T08:41:49;3;3;
55591;PMS5003;41454;53.396;-1.510;2023-11-19T08:44:16;2;2;
55591;PMS5003;41454;53.396;-1.510;2023-11-19T08:46:46;4;3;
55591;PMS5003;41454;53.396;-1.510;2023-11-19T08:49:14;4;1;
55591;PMS5003;41454;53.396;-1.510;2023-11-19T08:51:42;1;1;
55591;PMS5003;41454;53.396;-1.510;2023-11-19T08:54:09;1;1;
55591;PMS5003;41454;53.396;-1.510;2023-11-19T08:56:37;1;1;
55591;PMS5003;41454;53.396;-1.510;2023-11-19T08:59:04;1;1;
55591;PMS5003;41454;53.396;-1.510;2023-11-19T09:01:32;2;2;
55591;PMS5003;41454;53.396;-1.510;2023-11-19T09:03:59;2;2;
55591;PMS5003;41454;53.396;-1.510;2023-11-19T09:06:27;0;0;
55591;PMS5003;41454;53.396;-1.510;2023-11-19T09:08:53;2;2;
55591;PMS5003;41454;53.396;-1.510;2023-11-19T09:11:21;3;2;
55591;PMS5003;41454;53.396;-1.510;2023-11-19T09:13:47;3;3;
55591;PMS5003;41454;53.396;-1.510;2023-11-19T09:16:15;1;1;
55591;PMS5003;41454;53.396;-1.510;2023-11-19T09:18:42;2;2;
55591;PMS5003;41454;53.396;-1.510;2023-11-19T09:21:10;2;1;
55591;PMS5003;41454;53.396;-1.510;2023-11-19T09:23:37;2;2;
55591;PMS5003;41454;53.396;-1.510;2023-11-19T09:26:04;1;1;
55591;PMS5003;41454;53.396;-1.510;2023-11-19T09:28:35;2;2;
55591;PMS5003;41454;53.396;-1.510;2023-11-19T09:31:03;1;1;
55591;PMS5003;41454;53.396;-1.510;2023-11-19T09:33:39;3;2;
55591;PMS5003;41454;53.396;-1.510;2023-11-19T09:36:06;3;2;
55591;PMS5003;41454;53.396;-1.510;2023-11-19T09:38:33;2;2;
55591;PMS5003;41454;53.396;-1.510;2023-11-19T09:41:01;1;1;
55591;PMS5003;41454;53.396;-1.510;2023-11-19T09:43:29;4;3;
55591;PMS5003;41454;53.396;-1.510;2023-11-19T09:45:57;2;2;
55591;PMS5003;41454;53.396;-1.510;2023-11-19T09:48:28;2;2;
55591;PMS5003;41454;53.396;-1.510;2023-11-19T09:50:55;2;2;
55591;PMS5003;41454;53.396;-1.510;2023-11-19T09:53:23;2;2;
55591;PMS5003;41454;53.396;-1.510;2023-11-19T09:55:50;3;2;
55591;PMS5003;41454;53.396;-1.510;2023-11-19T09:58:19;2;2;
55591;PMS5003;41454;53.396;-1.510;2023-11-19T10:00:47;1;1;
55591;PMS5003;41454;53.396;-1.510;2023-11-19T10:03:15;1;1;
55591;PMS5003;41454;53.396;-1.510;2023-11-19T10:05:43;2;2;
55591;PMS5003;41454;53.396;-1.510;2023-11-19T10:08:10;0;0;
55591;PMS5003;41454;53.396;-1.510;2023-11-19T10:10:38;5;1;
55591;PMS5003;41454;53.396;-1.510;2023-11-19T10:13:05;1;1;
55591;PMS5003;41454;53.396;-1.510;2023-11-19T10:15:35;1;1;
55591;PMS5003;41454;53.396;-1.510;2023-11-19T10:18:03;1;0;
55591;PMS5003;41454;53.396;-1.510;2023-11-19T10:20:34;2;1;
55591;PMS5003;41454;53.396;-1.510;2023-11-19T10:23:02;3;3;
55591;PMS5003;41454;53.396;-1.510;2023-11-19T10:25:30;2;2;
55591;PMS5003;41454;53.396;-1.510;2023-11-19T10:27:57;2;2;
55591;PMS5003;41454;53.396;-1.510;2023-11-19T10:30:24;3;3;
55591;PMS5003;41454;53.396;-1.510;2023-11-19T10:33:09;2;2;
55591;PMS5003;41454;53.396;-1.510;2023-11-19T10:35:51;1;1;
55591;PMS5003;41454;53.396;-1.510;2023-11-19T10:38:18;2;2;
55591;PMS5003;41454;53.396;-1.510;2023-11-19T10:40:46;1;1;
55591;PMS5003;41454;53.396;-1.510;2023-11-19T10:43:14;1;1;
55591;PMS5003;41454;53.396;-1.510;2023-11-19T10:45:42;1;0;
55591;PMS5003;41454;53.396;-1.510;2023-11-19T10:48:09;1;1;
55591;PMS5003;41454;53.396;-1.510;2023-11-19T10:50:37;0;0;
55591;PMS5003;41454;53.396;-1.510;2023-11-19T10:53:05;1;1;
55591;PMS5003;41454;53.396;-1.510;2023-11-19T10:55:35;1;1;
55591;PMS5003;41454;53.396;-1.510;2023-11-19T10:58:04;0;0;
55591;PMS5003;41454;53.396;-1.510;2023-11-19T11:00:34;1;0;
55591;PMS5003;41454;53.396;-1.510;2023-11-19T11:03:08;0;0;
55591;PMS5003;41454;53.396;-1.510;2023-11-19T11:05:42;0;0;
55591;PMS5003;41454;53.396;-1.510;2023-11-19T11:08:09;0;0;
55591;PMS5003;41454;53.396;-1.510;2023-11-19T11:10:39;0;0;
55591;PMS5003;41454;53.396;-1.510;2023-11-19T11:13:13;1;1;
55591;PMS5003;41454;53.396;-1.510;2023-11-19T11:15:40;1;1;
55591;PMS5003;41454;53.396;-1.510;2023-11-19T11:18:08;0;0;
55591;PMS5003;41454;53.396;-1.510;2023-11-19T11:20:35;0;0;
55591;PMS5003;41454;53.396;-1.510;2023-11-19T11:23:09;2;1;
55591;PMS5003;41454;53.396;-1.510;2023-11-19T11:25:52;0;0;
55591;PMS5003;41454;53.396;-1.510;2023-11-19T11:28:32;1;0;
55591;PMS5003;41454;53.396;-1.510;2023-11-19T11:31:09;0;0;
55591;PMS5003;41454;53.396;-1.510;2023-11-19T11:33:57;0;0;
55591;PMS5003;41454;53.396;-1.510;2023-11-19T11:36:36;0;0;
55591;PMS5003;41454;53.396;-1.510;2023-11-19T11:39:13;0;0;
55591;PMS5003;41454;53.396;-1.510;2023-11-19T11:41:42;2;0;
55591;PMS5003;41454;53.396;-1.510;2023-11-19T11:44:09;0;0;
55591;PMS5003;41454;53.396;-1.510;2023-11-19T11:47:09;2;2;
55591;PMS5003;41454;53.396;-1.510;2023-11-19T11:49:36;0;0;
55591;PMS5003;41454;53.396;-1.510;2023-11-19T11:52:04;1;1;
55591;PMS5003;41454;53.396;-1.510;2023-11-19T11:54:31;0;0;
55591;PMS5003;41454;53.396;-1.510;2023-11-19T11:57:15;1;1;
55591;PMS5003;41454;53.396;-1.510;2023-11-19T11:59:43;0;0;
55591;PMS5003;41454;53.396;-1.510;2023-11-19T12:02:12;0;0;
55591;PMS5003;41454;53.396;-1.510;2023-11-19T12:04:41;1;1;
55591;PMS5003;41454;53.396;-1.510;2023-11-19T12:07:13;0;0;
55591;PMS5003;41454;53.396;-1.510;2023-11-19T12:09:41;1;1;
55591;PMS5003;41454;53.396;-1.510;2023-11-19T12:12:18;1;1;
55591;PMS5003;41454;53.396;-1.510;2023-11-19T12:15:04;2;2;
55591;PMS5003;41454;53.396;-1.510;2023-11-19T12:17:41;1;1;
55591;PMS5003;41454;53.396;-1.510;2023-11-19T12:20:10;0;0;
55591;PMS5003;41454;53.396;-1.510;2023-11-19T12:22:37;1;1;
55591;PMS5003;41454;53.396;-1.510;2023-11-19T12:25:06;1;1;
55591;PMS5003;41454;53.396;-1.510;2023-11-19T12:27:34;0;0;
55591;PMS5003;41454;53.396;-1.510;2023-11-19T12:30:00;1;1;
55591;PMS5003;41454;53.396;-1.510;2023-11-19T12:32:37;1;1;
55591;PMS5003;41454;53.396;-1.510;2023-11-19T12:35:04;0;0;
55591;PMS5003;41454;53.396;-1.510;2023-11-19T12:37:31;1;1;
55591;PMS5003;41454;53.396;-1.510;2023-11-19T12:39:59;1;1;
55591;PMS5003;41454;53.396;-1.510;2023-11-19T12:42:35;0;0;
55591;PMS5003;41454;53.396;-1.510;2023-11-19T12:45:02;0;0;
55591;PMS5003;41454;53.396;-1.510;2023-11-19T12:47:29;0;0;
55591;PMS5003;41454;53.396;-1.510;2023-11-19T12:49:56;0;0;
55591;PMS5003;41454;53.396;-1.510;2023-11-19T12:52:23;1;1;
55591;PMS5003;41454;53.396;-1.510;2023-11-19T12:54:50;0;0;
55591;PMS5003;41454;53.396;-1.510;2023-11-19T12:57:18;1;1;
55591;PMS5003;41454;53.396;-1.510;2023-11-19T12:59:54;0;0;
55591;PMS5003;41454;53.396;-1.510;2023-11-19T13:02:21;1;1;
55591;PMS5003;41454;53.396;-1.510;2023-11-19T13:04:49;2;2;
55591;PMS5003;41454;53.396;-1.510;2023-11-19T13:07:20;1;1;
55591;PMS5003;41454;53.396;-1.510;2023-11-19T13:09:47;1;1;
55591;PMS5003;41454;53.396;-1.510;2023-11-19T13:12:15;0;0;
55591;PMS5003;41454;53.396;-1.510;2023-11-19T13:14:42;0;0;
55591;PMS5003;41454;53.396;-1.510;2023-11-19T13:17:12;1;1;
55591;PMS5003;41454;53.396;-1.510;2023-11-19T13:19:40;0;0;
55591;PMS5003;41454;53.396;-1.510;2023-11-19T13:22:07;0;0;
55591;PMS5003;41454;53.396;-1.510;2023-11-19T13:24:35;0;0;
55591;PMS5003;41454;53.396;-1.510;2023-11-19T13:27:02;1;1;
55591;PMS5003;41454;53.396;-1.510;2023-11-19T13:29:29;2;1;
55591;PMS5003;41454;53.396;-1.510;2023-11-19T13:31:57;2;2;
55591;PMS5003;41454;53.396;-1.510;2023-11-19T13:34:23;0;0;
55591;PMS5003;41454;53.396;-1.510;2023-11-19T13:36:50;0;0;
55591;PMS5003;41454;53.396;-1.510;2023-11-19T13:39:17;2;2;
55591;PMS5003;41454;53.396;-1.510;2023-11-19T13:41:44;1;1;
55591;PMS5003;41454;53.396;-1.510;2023-11-19T13:44:12;1;1;
55591;PMS5003;41454;53.396;-1.510;2023-11-19T13:46:39;1;1;
55591;PMS5003;41454;53.396;-1.510;2023-11-19T13:49:07;1;1;
55591;PMS5003;41454;53.396;-1.510;2023-11-19T13:51:34;0;0;
55591;PMS5003;41454;53.396;-1.510;2023-11-19T13:54:02;1;1;
55591;PMS5003;41454;53.396;-1.510;2023-11-19T13:56:29;0;0;
55591;PMS5003;41454;53.396;-1.510;2023-11-19T13:58:56;2;0;
55591;PMS5003;41454;53.396;-1.510;2023-11-19T14:01:24;1;1;
55591;PMS5003;41454;53.396;-1.510;2023-11-19T14:03:52;2;2;
55591;PMS5003;41454;53.396;-1.510;2023-11-19T14:06:19;1;1;
55591;PMS5003;41454;53.396;-1.510;2023-11-19T14:08:47;2;1;
55591;PMS5003;41454;53.396;-1.510;2023-11-19T14:11:14;3;3;
55591;PMS5003;41454;53.396;-1.510;2023-11-19T14:13:42;3;3;
55591;PMS5003;41454;53.396;-1.510;2023-11-19T14:16:09;4;4;
55591;PMS5003;41454;53.396;-1.510;2023-11-19T14:18:36;3;2;
55591;PMS5003;41454;53.396;-1.510;2023-11-19T14:21:04;1;1;
55591;PMS5003;41454;53.396;-1.510;2023-11-19T14:23:31;1;1;
55591;PMS5003;41454;53.396;-1.510;2023-11-19T14:25:59;0;0;
55591;PMS5003;41454;53.396;-1.510;2023-11-19T14:28:26;1;1;
55591;PMS5003;41454;53.396;-1.510;2023-11-19T14:30:53;2;2;
55591;PMS5003;41454;53.396;-1.510;2023-11-19T14:33:20;3;3;
55591;PMS5003;41454;53.396;-1.510;2023-11-19T14:35:48;3;3;
55591;PMS5003;41454;53.396;-1.510;2023-11-19T14:38:15;8;8;
55591;PMS5003;41454;53.396;-1.510;2023-11-19T14:40:42;8;8;
55591;PMS5003;41454;53.396;-1.510;2023-11-19T14:43:10;11;11;
55591;PMS5003;41454;53.396;-1.510;2023-11-19T14:45:37;8;8;
55591;PMS5003;41454;53.396;-1.510;2023-11-19T14:48:05;6;6;
55591;PMS5003;41454;53.396;-1.510;2023-11-19T14:50:32;3;3;
55591;PMS5003;41454;53.396;-1.510;2023-11-19T14:52:59;2;2;
55591;PMS5003;41454;53.396;-1.510;2023-11-19T14:55:27;7;7;
55591;PMS5003;41454;53.396;-1.510;2023-11-19T14:57:54;10;8;
55591;PMS5003;41454;53.396;-1.510;2023-11-19T15:00:21;8;8;
55591;PMS5003;41454;53.396;-1.510;2023-11-19T15:02:48;5;5;
55591;PMS5003;41454;53.396;-1.510;2023-11-19T15:05:15;7;7;
55591;PMS5003;41454;53.396;-1.510;2023-11-19T15:07:43;5;5;
55591;PMS5003;41454;53.396;-1.510;2023-11-19T15:10:10;9;9;
55591;PMS5003;41454;53.396;-1.510;2023-11-19T15:12:38;4;4;
55591;PMS5003;41454;53.396;-1.510;2023-11-19T15:15:07;6;5;
55591;PMS5003;41454;53.396;-1.510;2023-11-19T15:17:35;5;5;
55591;PMS5003;41454;53.396;-1.510;2023-11-19T15:20:03;5;5;
55591;PMS5003;41454;53.396;-1.510;2023-11-19T15:22:31;5;5;
55591;PMS5003;41454;53.396;-1.510;2023-11-19T15:24:58;1;1;
55591;PMS5003;41454;53.396;-1.510;2023-11-19T15:27:26;2;2;
55591;PMS5003;41454;53.396;-1.510;2023-11-19T15:29:52;2;2;
55591;PMS5003;41454;53.396;-1.510;2023-11-19T15:32:20;1;1;
55591;PMS5003;41454;53.396;-1.510;2023-11-19T15:34:47;1;1;
55591;PMS5003;41454;53.396;-1.510;2023-11-19T15:37:14;2;2;
55591;PMS5003;41454;53.396;-1.510;2023-11-19T15:39:41;2;2;
55591;PMS5003;41454;53.396;-1.510;2023-11-19T15:42:08;1;1;
55591;PMS5003;41454;53.396;-1.510;2023-11-19T15:44:36;1;1;
55591;PMS5003;41454;53.396;-1.510;2023-11-19T15:47:03;1;1;
55591;PMS5003;41454;53.396;-1.510;2023-11-19T15:49:31;1;0;
55591;PMS5003;41454;53.396;-1.510;2023-11-19T15:51:58;1;1;
55591;PMS5003;41454;53.396;-1.510;2023-11-19T15:54:26;1;1;
55591;PMS5003;41454;53.396;-1.510;2023-11-19T15:56:52;2;2;
55591;PMS5003;41454;53.396;-1.510;2023-11-19T15:59:20;1;1;
55591;PMS5003;41454;53.396;-1.510;2023-11-19T16:01:47;4;4;
55591;PMS5003;41454;53.396;-1.510;2023-11-19T16:04:14;3;3;
55591;PMS5003;41454;53.396;-1.510;2023-11-19T16:06:41;3;3;
55591;PMS5003;41454;53.396;-1.510;2023-11-19T16:09:08;3;3;
55591;PMS5003;41454;53.396;-1.510;2023-11-19T16:11:36;2;2;
55591;PMS5003;41454;53.396;-1.510;2023-11-19T16:14:03;1;1;
55591;PMS5003;41454;53.396;-1.510;2023-11-19T16:16:31;1;1;
55591;PMS5003;41454;53.396;-1.510;2023-11-19T16:18:58;1;1;
55591;PMS5003;41454;53.396;-1.510;2023-11-19T16:21:26;1;1;
55591;PMS5003;41454;53.396;-1.510;2023-11-19T16:23:52;1;1;
55591;PMS5003;41454;53.396;-1.510;2023-11-19T16:26:20;1;1;
55591;PMS5003;41454;53.396;-1.510;2023-11-19T16:28:47;1;1;
55591;PMS5003;41454;53.396;-1.510;2023-11-19T16:31:14;0;0;
55591;PMS5003;41454;53.396;-1.510;2023-11-19T16:33:41;1;1;
55591;PMS5003;41454;53.396;-1.510;2023-11-19T16:36:07;0;0;
55591;PMS5003;41454;53.396;-1.510;2023-11-19T16:38:35;1;1;